createdAt,value
2016-08-22T00:00:42.929Z,0
2016-08-22T00:01:42.895Z,0
2016-08-22T00:02:42.158Z,0
2016-08-22T00:03:42.831Z,0
2016-08-22T00:04:41.400Z,0
2016-08-22T00:05:42.063Z,0
2016-08-22T00:06:41.352Z,0
2016-08-22T00:07:42.711Z,0
2016-08-22T00:08:41.271Z,0
2016-08-22T00:09:41.236Z,0
2016-08-22T00:10:41.905Z,0
2016-08-22T00:11:41.868Z,0
2016-08-22T00:12:42.542Z,0
2016-08-22T00:13:41.798Z,0
2016-08-22T00:14:42.469Z,0
2016-08-22T00:15:42.430Z,0
2016-08-22T00:16:42.399Z,0
2016-08-22T00:17:42.365Z,0
2016-08-22T00:18:40.936Z,0
2016-08-22T00:19:41.600Z,0
2016-08-22T00:20:41.568Z,0
2016-08-22T00:21:41.533Z,0
2016-08-22T00:22:40.802Z,0
2016-08-22T00:23:40.784Z,0
2016-08-22T00:24:41.443Z,0
2016-08-22T00:25:42.098Z,0
2016-08-22T00:26:39.975Z,0
2016-08-22T00:27:42.025Z,0
2016-08-22T00:28:41.315Z,0
2016-08-22T00:29:41.280Z,0
2016-08-22T00:30:41.934Z,0
2016-08-22T00:31:41.203Z,0
2016-08-22T00:32:41.863Z,0
2016-08-22T00:33:40.436Z,0
2016-08-22T00:34:41.099Z,0
2016-08-22T00:35:40.369Z,0
2016-08-22T00:36:41.728Z,0
2016-08-22T00:37:41.006Z,0
2016-08-22T00:38:40.970Z,0
2016-08-22T00:39:40.934Z,0
2016-08-22T00:40:55.807Z,0
2016-08-22T00:41:41.574Z,0
2016-08-22T00:42:40.836Z,0
2016-08-22T00:43:40.818Z,0
2016-08-22T00:44:41.469Z,0
2016-08-22T00:45:41.441Z,0
2016-08-22T00:46:41.400Z,0
2016-08-22T00:47:41.379Z,0
2016-08-22T00:48:40.635Z,0
2016-08-22T00:49:40.607Z,0
2016-08-22T00:50:40.572Z,0
2016-08-22T00:51:39.854Z,0
2016-08-22T00:52:40.521Z,0
2016-08-22T00:53:41.193Z,0
2016-08-22T00:54:40.437Z,0
2016-08-22T00:55:41.118Z,0
2016-08-22T00:56:40.374Z,0
2016-08-22T00:57:40.339Z,0
2016-08-22T00:58:40.999Z,0
2016-08-22T00:59:40.962Z,0
2016-08-22T01:00:40.935Z,0
2016-08-22T01:01:39.525Z,0
2016-08-22T01:02:40.885Z,0
2016-08-22T01:03:40.852Z,0
2016-08-22T01:04:40.109Z,0
2016-08-22T01:05:40.079Z,0
2016-08-22T01:06:40.045Z,0
2016-08-22T01:07:39.313Z,0
2016-08-22T01:08:40.677Z,0
2016-08-22T01:09:40.647Z,0
2016-08-22T01:10:39.919Z,0
2016-08-22T01:11:38.488Z,0
2016-08-22T01:12:40.548Z,0
2016-08-22T01:13:40.513Z,0
2016-08-22T01:14:39.775Z,0
2016-08-22T01:15:40.471Z,0
2016-08-22T01:16:40.411Z,0
2016-08-22T01:17:40.375Z,0
2016-08-22T01:18:39.641Z,0
2016-08-22T01:19:39.613Z,0
2016-08-22T01:20:40.278Z,0
2016-08-22T01:21:40.248Z,0
2016-08-22T01:22:40.202Z,0
2016-08-22T01:23:39.476Z,0
2016-08-22T01:24:39.447Z,0
2016-08-22T01:25:39.412Z,0
2016-08-22T01:26:40.078Z,0
2016-08-22T01:27:39.347Z,0
2016-08-22T01:28:40.021Z,0
2016-08-22T01:29:39.279Z,0
2016-08-22T01:30:39.250Z,0
2016-08-22T01:31:39.218Z,0
2016-08-22T01:32:39.876Z,0
2016-08-22T01:33:39.840Z,0
2016-08-22T01:34:39.811Z,0
2016-08-22T01:35:39.787Z,0
2016-08-22T01:36:39.051Z,0
2016-08-22T01:37:38.318Z,0
2016-08-22T01:38:39.693Z,0
2016-08-22T01:39:38.951Z,0
2016-08-22T01:40:38.918Z,0
2016-08-22T01:41:38.881Z,0
2016-08-22T01:42:39.548Z,0
2016-08-22T01:43:39.528Z,0
2016-08-22T01:44:38.087Z,0
2016-08-22T01:45:39.452Z,0
2016-08-22T01:46:38.721Z,0
2016-08-22T01:47:38.683Z,0
2016-08-22T01:48:39.341Z,0
2016-08-22T01:49:39.312Z,0
2016-08-22T01:50:38.591Z,0
2016-08-22T01:51:39.248Z,0
2016-08-22T01:52:39.212Z,0
2016-08-22T01:53:37.783Z,0
2016-08-22T01:54:39.148Z,0
2016-08-22T01:55:39.121Z,0
2016-08-22T01:56:37.683Z,0
2016-08-22T01:57:39.053Z,0
2016-08-22T01:58:38.325Z,0
2016-08-22T01:59:38.986Z,0
2016-08-22T02:00:38.952Z,0
2016-08-22T02:01:38.909Z,0
2016-08-22T02:02:38.889Z,0
2016-08-22T02:03:38.843Z,0
2016-08-22T02:04:38.813Z,0
2016-08-22T02:05:38.795Z,0
2016-08-22T02:06:38.051Z,0
2016-08-22T02:07:38.013Z,0
2016-08-22T02:08:38.684Z,0
2016-08-22T02:09:37.261Z,0
2016-08-22T02:10:37.220Z,0
2016-08-22T02:11:37.883Z,0
2016-08-22T02:12:37.863Z,0
2016-08-22T02:13:38.526Z,0
2016-08-22T02:14:38.488Z,0
2016-08-22T02:15:37.758Z,0
2016-08-22T02:16:38.411Z,0
2016-08-22T02:17:36.990Z,0
2016-08-22T02:18:36.952Z,0
2016-08-22T02:19:38.315Z,0
2016-08-22T02:20:37.583Z,0
2016-08-22T02:21:37.554Z,0
2016-08-22T02:22:38.207Z,0
2016-08-22T02:23:36.784Z,0
2016-08-22T02:24:38.144Z,0
2016-08-22T02:25:37.420Z,0
2016-08-22T02:26:38.077Z,0
2016-08-22T02:27:38.042Z,0
2016-08-22T02:28:36.616Z,0
2016-08-22T02:29:37.282Z,0
2016-08-22T02:30:37.247Z,0
2016-08-22T02:31:37.923Z,0
2016-08-22T02:32:36.482Z,0
2016-08-22T02:33:37.848Z,0
2016-08-22T02:34:37.115Z,0
2016-08-22T02:35:37.774Z,0
2016-08-22T02:36:37.766Z,0
2016-08-22T02:37:35.634Z,0
2016-08-22T02:38:37.674Z,0
2016-08-22T02:39:36.258Z,0
2016-08-22T02:40:36.918Z,0
2016-08-22T02:41:37.574Z,0
2016-08-22T02:42:36.857Z,0
2016-08-22T02:43:37.511Z,0
2016-08-22T02:44:36.079Z,0
2016-08-22T02:45:36.744Z,0
2016-08-22T02:46:36.712Z,0
2016-08-22T02:47:36.673Z,0
2016-08-22T02:48:36.645Z,0
2016-08-22T02:49:37.314Z,0
2016-08-22T02:50:37.272Z,0
2016-08-22T02:51:36.547Z,0
2016-08-22T02:52:36.506Z,0
2016-08-22T02:53:36.480Z,0
2016-08-22T02:54:36.454Z,0
2016-08-22T02:55:37.110Z,0
2016-08-22T02:56:36.380Z,0
2016-08-22T02:57:37.045Z,0
2016-08-22T02:58:35.614Z,0
2016-08-22T02:59:36.973Z,0
2016-08-22T03:00:36.943Z,0
2016-08-22T03:01:35.514Z,0
2016-08-22T03:02:36.874Z,0
2016-08-22T03:03:36.142Z,0
2016-08-22T03:04:35.410Z,0
2016-08-22T03:05:35.381Z,0
2016-08-22T03:06:36.045Z,0
2016-08-22T03:07:36.715Z,0
2016-08-22T03:08:36.681Z,0
2016-08-22T03:09:35.943Z,0
2016-08-22T03:10:35.907Z,0
2016-08-22T03:11:36.568Z,0
2016-08-22T03:12:35.841Z,0
2016-08-22T03:13:36.507Z,0
2016-08-22T03:14:35.770Z,0
2016-08-22T03:15:35.739Z,0
2016-08-22T03:16:35.013Z,0
2016-08-22T03:17:35.671Z,0
2016-08-22T03:18:35.638Z,0
2016-08-22T03:19:36.301Z,0
2016-08-22T03:20:35.573Z,0
2016-08-22T03:21:35.542Z,0
2016-08-22T03:22:35.507Z,0
2016-08-22T03:23:36.161Z,0
2016-08-22T03:24:36.141Z,0
2016-08-22T03:25:35.404Z,0
2016-08-22T03:26:35.370Z,0
2016-08-22T03:27:36.035Z,0
2016-08-22T03:28:35.995Z,0
2016-08-22T03:29:34.577Z,0
2016-08-22T03:30:34.541Z,0
2016-08-22T03:31:35.200Z,0
2016-08-22T03:32:35.166Z,0
2016-08-22T03:33:35.133Z,0
2016-08-22T03:34:35.105Z,0
2016-08-22T03:35:35.762Z,0
2016-08-22T03:36:35.732Z,0
2016-08-22T03:37:35.696Z,0
2016-08-22T03:38:33.570Z,0
2016-08-22T03:39:35.633Z,0
2016-08-22T03:40:34.899Z,0
2016-08-22T03:41:35.562Z,0
2016-08-22T03:42:35.532Z,0
2016-08-22T03:43:34.814Z,0
2016-08-22T03:44:33.368Z,0
2016-08-22T03:45:34.031Z,0
2016-08-22T03:46:35.388Z,0
2016-08-22T03:47:35.361Z,0
2016-08-22T03:48:35.344Z,0
2016-08-22T03:49:34.592Z,0
2016-08-22T03:50:35.263Z,0
2016-08-22T03:51:34.529Z,0
2016-08-22T03:52:34.497Z,0
2016-08-22T03:53:35.156Z,0
2016-08-22T03:54:34.424Z,0
2016-08-22T03:55:35.089Z,0
2016-08-22T03:56:34.372Z,0
2016-08-22T03:57:34.322Z,0
2016-08-22T03:58:34.289Z,4
2016-08-22T03:59:34.950Z,4
2016-08-22T04:00:32.825Z,0
2016-08-22T04:01:34.882Z,4
2016-08-22T04:02:34.854Z,4
2016-08-22T04:03:34.831Z,4
2016-08-22T04:04:34.789Z,8
2016-08-22T04:05:33.361Z,4
2016-08-22T04:06:33.345Z,8
2016-08-22T04:07:33.986Z,8
2016-08-22T04:08:33.956Z,12
2016-08-22T04:09:32.531Z,12
2016-08-22T04:10:34.580Z,16
2016-08-22T04:11:34.555Z,20
2016-08-22T04:12:33.817Z,20
2016-08-22T04:13:33.786Z,24
2016-08-22T04:14:34.442Z,32
2016-08-22T04:15:33.029Z,32
2016-08-22T04:16:33.678Z,44
2016-08-22T04:17:34.343Z,48
2016-08-22T04:18:32.229Z,52
2016-08-22T04:19:32.895Z,64
2016-08-22T04:20:34.241Z,76
2016-08-22T04:21:33.509Z,84
2016-08-22T04:22:34.172Z,96
2016-08-22T04:23:33.444Z,104
2016-08-22T04:24:34.102Z,120
2016-08-22T04:25:33.369Z,132
2016-08-22T04:26:32.640Z,144
2016-08-22T04:27:32.611Z,164
2016-08-22T04:28:33.271Z,184
2016-08-22T04:29:33.943Z,200
2016-08-22T04:30:33.217Z,220
2016-08-22T04:31:33.172Z,240
2016-08-22T04:32:33.835Z,268
2016-08-22T04:33:33.805Z,296
2016-08-22T04:34:33.770Z,328
2016-08-22T04:35:33.039Z,368
2016-08-22T04:36:33.701Z,412
2016-08-22T04:37:32.966Z,456
2016-08-22T04:38:32.927Z,508
2016-08-22T04:39:32.905Z,568
2016-08-22T04:40:32.863Z,628
2016-08-22T04:41:33.527Z,696
2016-08-22T04:42:33.493Z,764
2016-08-22T04:43:33.459Z,840
2016-08-22T04:44:33.422Z,916
2016-08-22T04:45:32.699Z,992
2016-08-22T04:46:32.658Z,1080
2016-08-22T04:47:33.322Z,1172
2016-08-22T04:48:32.594Z,1260
2016-08-22T04:49:32.560Z,1352
2016-08-22T04:50:32.527Z,1460
2016-08-22T04:51:32.490Z,1580
2016-08-22T04:52:33.155Z,1712
2016-08-22T04:53:32.420Z,1848
2016-08-22T04:54:33.089Z,2008
2016-08-22T04:55:31.663Z,2148
2016-08-22T04:56:33.031Z,2284
2016-08-22T04:57:31.594Z,2412
2016-08-22T04:58:32.959Z,2568
2016-08-22T04:59:31.536Z,2804
2016-08-22T05:00:32.899Z,2984
2016-08-22T05:01:32.166Z,3144
2016-08-22T05:02:32.819Z,3352
2016-08-22T05:03:32.802Z,3604
2016-08-22T05:04:32.058Z,4208
2016-08-22T05:05:32.031Z,4576
2016-08-22T05:06:32.007Z,4104
2016-08-22T05:07:32.652Z,4044
2016-08-22T05:08:32.621Z,4368
2016-08-22T05:09:30.498Z,4684
2016-08-22T05:10:32.556Z,5180
2016-08-22T05:11:31.825Z,5776
2016-08-22T05:12:31.786Z,6828
2016-08-22T05:13:32.460Z,8732
2016-08-22T05:14:32.423Z,9904
2016-08-22T05:15:32.389Z,10276
2016-08-22T05:16:30.967Z,10584
2016-08-22T05:17:31.641Z,11328
2016-08-22T05:18:32.292Z,15936
2016-08-22T05:19:31.569Z,20960
2016-08-22T05:20:32.237Z,23552
2016-08-22T05:21:30.805Z,23488
2016-08-22T05:22:32.166Z,24512
2016-08-22T05:23:31.434Z,25568
2016-08-22T05:24:32.099Z,26144
2016-08-22T05:25:31.375Z,27424
2016-08-22T05:26:30.664Z,27904
2016-08-22T05:27:31.316Z,28256
2016-08-22T05:28:31.295Z,27840
2016-08-22T05:29:30.572Z,29536
2016-08-22T05:30:31.927Z,30176
2016-08-22T05:31:31.900Z,29728
2016-08-22T05:32:31.165Z,30272
2016-08-22T05:33:31.130Z,32064
2016-08-22T05:34:31.821Z,32352
2016-08-22T05:35:31.083Z,32800
2016-08-22T05:36:31.050Z,34272
2016-08-22T05:37:30.355Z,34336
2016-08-22T05:38:30.991Z,33568
2016-08-22T05:39:31.672Z,34720
2016-08-22T05:40:31.637Z,36576
2016-08-22T05:41:30.931Z,36896
2016-08-22T05:42:31.579Z,35936
2016-08-22T05:43:30.862Z,36672
2016-08-22T05:44:31.547Z,38464
2016-08-22T05:45:31.496Z,38592
2016-08-22T05:46:30.777Z,38688
2016-08-22T05:47:30.758Z,39552
2016-08-22T05:48:30.727Z,40544
2016-08-22T05:49:30.693Z,40896
2016-08-22T05:50:30.671Z,42688
2016-08-22T05:51:31.340Z,43456
2016-08-22T05:52:31.310Z,43936
2016-08-22T05:53:30.596Z,45664
2016-08-22T05:54:31.283Z,48896
2016-08-22T05:55:29.843Z,48960
2016-08-22T05:56:31.214Z,49600
2016-08-22T05:57:31.191Z,50272
2016-08-22T05:58:29.771Z,50400
2016-08-22T05:59:29.744Z,51648
2016-08-22T06:00:31.127Z,53600
2016-08-22T06:01:29.693Z,52544
2016-08-22T06:02:31.068Z,51200
2016-08-22T06:03:29.648Z,52896
2016-08-22T06:04:31.017Z,55136
2016-08-22T06:05:30.310Z,55584
2016-08-22T06:06:30.970Z,56960
2016-08-22T06:07:30.949Z,59936
2016-08-22T06:08:30.924Z,60256
2016-08-22T06:09:30.205Z,58144
2016-08-22T06:10:30.177Z,58432
2016-08-22T06:11:30.158Z,60128
2016-08-22T06:12:30.852Z,60160
2016-08-22T06:13:30.806Z,62880
2016-08-22T06:14:30.787Z,60288
2016-08-22T06:15:30.765Z,64704
2016-08-22T06:16:30.745Z,56128
2016-08-22T06:17:30.719Z,47552
2016-08-22T06:18:29.309Z,31328
2016-08-22T06:19:29.293Z,26016
2016-08-22T06:20:29.965Z,28224
2016-08-22T06:21:29.944Z,31584
2016-08-22T06:22:30.621Z,28416
2016-08-22T06:23:30.601Z,24960
2016-08-22T06:24:30.571Z,23648
2016-08-22T06:25:29.862Z,21664
2016-08-22T06:26:29.840Z,22368
2016-08-22T06:27:29.821Z,22688
2016-08-22T06:28:30.493Z,27136
2016-08-22T06:29:30.464Z,48288
2016-08-22T06:30:29.746Z,57952
2016-08-22T06:31:30.422Z,39744
2016-08-22T06:32:29.701Z,33952
2016-08-22T06:33:29.003Z,58144
2016-08-22T06:34:30.351Z,47008
2016-08-22T06:35:29.634Z,37216
2016-08-22T06:36:30.306Z,29952
2016-08-22T06:37:29.584Z,31136
2016-08-22T06:38:30.257Z,27872
2016-08-22T06:39:29.551Z,26816
2016-08-22T06:40:29.518Z,31520
2016-08-22T06:41:29.693Z,25760
2016-08-22T06:42:29.467Z,24832
2016-08-22T06:43:29.459Z,24864
2016-08-22T06:44:30.128Z,25568
2016-08-22T06:45:29.403Z,25760
2016-08-22T06:46:28.684Z,26336
2016-08-22T06:47:29.355Z,24096
2016-08-22T06:48:28.653Z,23680
2016-08-22T06:49:30.020Z,23936
2016-08-22T06:50:29.983Z,24864
2016-08-22T06:51:29.253Z,26912
2016-08-22T06:52:28.535Z,27776
2016-08-22T06:53:29.905Z,25728
2016-08-22T06:54:28.692Z,26720
2016-08-22T06:55:29.158Z,27520
2016-08-22T06:56:29.835Z,31200
2016-08-22T06:57:28.423Z,33664
2016-08-22T06:58:29.100Z,88064
2016-08-22T06:59:29.061Z,85856
2016-08-22T07:00:29.733Z,94080
2016-08-22T07:01:29.716Z,87872
2016-08-22T07:02:28.990Z,87488
2016-08-22T07:03:28.270Z,86624
2016-08-22T07:04:28.935Z,89216
2016-08-22T07:05:29.631Z,90848
2016-08-22T07:06:28.893Z,59936
2016-08-22T07:07:28.880Z,76224
2016-08-22T07:08:28.151Z,79840
2016-08-22T07:09:29.532Z,79712
2016-08-22T07:10:29.506Z,74528
2016-08-22T07:11:28.792Z,105504
2016-08-22T07:12:27.367Z,70560
2016-08-22T07:13:28.746Z,82048
2016-08-22T07:14:28.721Z,71200
2016-08-22T07:15:28.000Z,71424
2016-08-22T07:16:29.371Z,71360
2016-08-22T07:17:28.657Z,71328
2016-08-22T07:18:27.950Z,58048
2016-08-22T07:19:29.310Z,44768
2016-08-22T07:20:27.897Z,40384
2016-08-22T07:21:29.275Z,41728
2016-08-22T07:22:29.247Z,90944
2016-08-22T07:23:28.529Z,108960
2016-08-22T07:24:27.828Z,109536
2016-08-22T07:25:27.793Z,105856
2016-08-22T07:26:27.077Z,101856
2016-08-22T07:27:29.151Z,102912
2016-08-22T07:28:27.748Z,90112
2016-08-22T07:29:28.419Z,75776
2016-08-22T07:30:28.401Z,66208
2016-08-22T07:31:28.370Z,84000
2016-08-22T07:32:27.678Z,67488
2016-08-22T07:33:27.634Z,80032
2016-08-22T07:34:28.323Z,103840
2016-08-22T07:35:27.613Z,80128
2016-08-22T07:36:27.577Z,94048
2016-08-22T07:37:28.259Z,81280
2016-08-22T07:38:28.958Z,84448
2016-08-22T07:39:28.914Z,102176
2016-08-22T07:40:28.897Z,102720
2016-08-22T07:41:28.878Z,97344
2016-08-22T07:42:28.165Z,85952
2016-08-22T07:43:27.452Z,88256
2016-08-22T07:44:27.429Z,95392
2016-08-22T07:45:28.107Z,98400
2016-08-22T07:46:28.797Z,96896
2016-08-22T07:47:28.076Z,93664
2016-08-22T07:48:28.765Z,91744
2016-08-22T07:49:28.735Z,92704
2016-08-22T07:50:28.036Z,98368
2016-08-22T07:51:28.008Z,95776
2016-08-22T07:52:28.685Z,96832
2016-08-22T07:53:28.670Z,99744
2016-08-22T07:54:28.654Z,101632
2016-08-22T07:55:27.238Z,104288
2016-08-22T07:56:28.620Z,103616
2016-08-22T07:57:27.906Z,99904
2016-08-22T07:58:27.889Z,98304
2016-08-22T07:59:27.874Z,102432
2016-08-22T08:00:28.553Z,101568
2016-08-22T08:01:27.838Z,99904
2016-08-22T08:02:27.827Z,103968
2016-08-22T08:03:27.813Z,104288
2016-08-22T08:04:28.492Z,103648
2016-08-22T08:05:27.773Z,104576
2016-08-22T08:06:27.766Z,105536
2016-08-22T08:07:27.745Z,102016
2016-08-22T08:08:27.732Z,97472
2016-08-22T08:09:27.716Z,99840
2016-08-22T08:10:28.399Z,103104
2016-08-22T08:11:28.384Z,101824
2016-08-22T08:12:26.971Z,101856
2016-08-22T08:13:26.263Z,100896
2016-08-22T08:14:27.663Z,105792
2016-08-22T08:15:27.634Z,106368
2016-08-22T08:16:27.611Z,97344
2016-08-22T08:17:26.901Z,92096
2016-08-22T08:18:28.276Z,68864
2016-08-22T08:19:26.875Z,36608
2016-08-22T08:20:26.162Z,26368
2016-08-22T08:21:28.234Z,25376
2016-08-22T08:22:26.819Z,19104
2016-08-22T08:23:28.206Z,13828
2016-08-22T08:24:27.491Z,26400
2016-08-22T08:25:27.482Z,25120
2016-08-22T08:26:27.463Z,24736
2016-08-22T08:27:28.149Z,24480
2016-08-22T08:28:27.431Z,24576
2016-08-22T08:29:28.127Z,24832
2016-08-22T08:30:27.405Z,25184
2016-08-22T08:31:27.387Z,26624
2016-08-22T08:32:27.378Z,27872
2016-08-22T08:33:27.368Z,28320
2016-08-22T08:34:27.349Z,28160
2016-08-22T08:35:26.644Z,28576
2016-08-22T08:36:25.937Z,29248
2016-08-22T08:37:26.615Z,32320
2016-08-22T08:38:28.001Z,15548
2016-08-22T08:39:27.979Z,27264
2016-08-22T08:40:27.271Z,32064
2016-08-22T08:41:27.968Z,35712
2016-08-22T08:42:27.937Z,58944
2016-08-22T08:43:27.936Z,100352
2016-08-22T08:44:27.904Z,126080
2016-08-22T08:45:27.903Z,128128
2016-08-22T08:46:27.182Z,128832
2016-08-22T08:47:27.171Z,127648
2016-08-22T08:48:25.765Z,128768
2016-08-22T08:49:27.843Z,132032
2016-08-22T08:50:27.824Z,128800
2016-08-22T08:51:27.109Z,125632
2016-08-22T08:52:27.806Z,130784
2016-08-22T08:53:27.083Z,133728
2016-08-22T08:54:27.767Z,133024
2016-08-22T08:55:27.059Z,129920
2016-08-22T08:56:26.350Z,132256
2016-08-22T08:57:27.731Z,132960
2016-08-22T08:58:27.731Z,136512
2016-08-22T08:59:26.322Z,134432
2016-08-22T09:00:27.690Z,128832
2016-08-22T09:01:26.985Z,135712
2016-08-22T09:02:26.967Z,130080
2016-08-22T09:03:26.960Z,131104
2016-08-22T09:04:26.264Z,135296
2016-08-22T09:05:26.933Z,126688
2016-08-22T09:06:27.619Z,124064
2016-08-22T09:07:26.902Z,121536
2016-08-22T09:08:27.591Z,117376
2016-08-22T09:09:26.881Z,115296
2016-08-22T09:10:26.174Z,112576
2016-08-22T09:11:26.862Z,117984
2016-08-22T09:12:26.153Z,119296
2016-08-22T09:13:27.526Z,112416
2016-08-22T09:14:26.825Z,108960
2016-08-22T09:15:27.507Z,113472
2016-08-22T09:16:26.800Z,169504
2016-08-22T09:17:26.798Z,223168
2016-08-22T09:18:27.488Z,193440
2016-08-22T09:19:26.769Z,141888
2016-08-22T09:20:26.061Z,89728
2016-08-22T09:21:26.753Z,68064
2016-08-22T09:22:26.037Z,61536
2016-08-22T09:23:26.733Z,59072
2016-08-22T09:24:26.713Z,60928
2016-08-22T09:25:26.707Z,61088
2016-08-22T09:26:25.994Z,59840
2016-08-22T09:27:25.983Z,59872
2016-08-22T09:28:26.677Z,60192
2016-08-22T09:29:26.657Z,61760
2016-08-22T09:30:25.947Z,65920
2016-08-22T09:31:27.329Z,71936
2016-08-22T09:32:27.338Z,72992
2016-08-22T09:33:27.331Z,69088
2016-08-22T09:34:26.606Z,70336
2016-08-22T09:35:27.293Z,72416
2016-08-22T09:36:26.583Z,73728
2016-08-22T09:37:26.582Z,76224
2016-08-22T09:38:25.869Z,78784
2016-08-22T09:39:25.857Z,82176
2016-08-22T09:40:25.846Z,84224
2016-08-22T09:41:27.238Z,83840
2016-08-22T09:42:27.216Z,91328
2016-08-22T09:43:26.507Z,97536
2016-08-22T09:44:26.499Z,93888
2016-08-22T09:45:25.791Z,95968
2016-08-22T09:46:26.494Z,94464
2016-08-22T09:47:26.469Z,96448
2016-08-22T09:48:27.164Z,100480
2016-08-22T09:49:27.143Z,102176
2016-08-22T09:50:27.129Z,105120
2016-08-22T09:51:27.126Z,101088
2016-08-22T09:52:25.721Z,97632
2016-08-22T09:53:26.399Z,103648
2016-08-22T09:54:25.692Z,101888
2016-08-22T09:55:27.077Z,100032
2016-08-22T09:56:26.364Z,100640
2016-08-22T09:57:27.053Z,102592
2016-08-22T09:58:25.659Z,105408
2016-08-22T09:59:26.345Z,103936
2016-08-22T10:00:27.019Z,112416
2016-08-22T10:01:25.615Z,115552
2016-08-22T10:02:26.297Z,108672
2016-08-22T10:03:26.289Z,107616
2016-08-22T10:04:26.275Z,113504
2016-08-22T10:05:25.567Z,115424
2016-08-22T10:06:24.858Z,114592
2016-08-22T10:07:25.544Z,107392
2016-08-22T10:08:26.933Z,111648
2016-08-22T10:09:26.224Z,117984
2016-08-22T10:10:26.922Z,116160
2016-08-22T10:11:26.195Z,112288
2016-08-22T10:12:26.887Z,114624
2016-08-22T10:13:26.865Z,118112
2016-08-22T10:14:26.861Z,120832
2016-08-22T10:15:26.844Z,123712
2016-08-22T10:16:26.836Z,123008
2016-08-22T10:17:25.433Z,112224
2016-08-22T10:18:26.820Z,110240
2016-08-22T10:19:26.109Z,116160
2016-08-22T10:20:26.097Z,114272
2016-08-22T10:21:26.082Z,114400
2016-08-22T10:22:26.769Z,119008
2016-08-22T10:23:26.069Z,114816
2016-08-22T10:24:26.056Z,43616
2016-08-22T10:25:26.043Z,12820
2016-08-22T10:26:26.043Z,9804
2016-08-22T10:27:26.717Z,10452
2016-08-22T10:28:25.310Z,10692
2016-08-22T10:29:25.989Z,9356
2016-08-22T10:30:25.976Z,9204
2016-08-22T10:31:25.966Z,9248
2016-08-22T10:32:26.644Z,9228
2016-08-22T10:33:25.938Z,9584
2016-08-22T10:34:26.608Z,9828
2016-08-22T10:35:25.900Z,12200
2016-08-22T10:36:25.876Z,54176
2016-08-22T10:37:25.857Z,16668
2016-08-22T10:38:26.543Z,13500
2016-08-22T10:39:25.138Z,13672
2016-08-22T10:40:25.805Z,41952
2016-08-22T10:41:26.481Z,40096
2016-08-22T10:42:25.774Z,18336
2016-08-22T10:43:25.064Z,25152
2016-08-22T10:44:25.044Z,26176
2016-08-22T10:45:26.408Z,26432
2016-08-22T10:46:26.384Z,30176
2016-08-22T10:47:25.673Z,32960
2016-08-22T10:48:25.659Z,35424
2016-08-22T10:49:26.343Z,26304
2016-08-22T10:50:26.318Z,24320
2016-08-22T10:51:26.294Z,32512
2016-08-22T10:52:26.285Z,35232
2016-08-22T10:53:26.258Z,37504
2016-08-22T10:54:25.550Z,45248
2016-08-22T10:55:26.221Z,51488
2016-08-22T10:56:26.205Z,52256
2016-08-22T10:57:25.490Z,54464
2016-08-22T10:58:26.169Z,10616
2016-08-22T10:59:26.150Z,9824
2016-08-22T11:00:25.433Z,9468
2016-08-22T11:01:25.427Z,10608
2016-08-22T11:02:26.103Z,11084
2016-08-22T11:03:25.376Z,33600
2016-08-22T11:04:25.357Z,42816
2016-08-22T11:05:26.045Z,99936
2016-08-22T11:06:26.020Z,96064
2016-08-22T11:07:25.993Z,94592
2016-08-22T11:08:25.985Z,12780
2016-08-22T11:09:25.263Z,10372
2016-08-22T11:10:25.941Z,9572
2016-08-22T11:11:25.922Z,9344
2016-08-22T11:12:25.899Z,10548
2016-08-22T11:13:25.890Z,57312
2016-08-22T11:14:25.856Z,91424
2016-08-22T11:15:25.835Z,89792
2016-08-22T11:16:25.815Z,11976
2016-08-22T11:17:25.099Z,33088
2016-08-22T11:18:25.777Z,23200
2016-08-22T11:19:25.754Z,22240
2016-08-22T11:20:25.035Z,20352
2016-08-22T11:21:24.320Z,19040
2016-08-22T11:22:25.696Z,19104
2016-08-22T11:23:24.281Z,19584
2016-08-22T11:24:25.655Z,20704
2016-08-22T11:25:24.935Z,20224
2016-08-22T11:26:24.909Z,19296
2016-08-22T11:27:25.586Z,17920
2016-08-22T11:28:25.562Z,16928
2016-08-22T11:29:24.151Z,15992
2016-08-22T11:30:25.529Z,15080
2016-08-22T11:31:24.807Z,14544
2016-08-22T11:32:25.481Z,12960
2016-08-22T11:33:25.465Z,15700
2016-08-22T11:34:25.434Z,16992
2016-08-22T11:35:24.716Z,18336
2016-08-22T11:36:23.999Z,17856
2016-08-22T11:37:25.377Z,17600
2016-08-22T11:38:23.956Z,17216
2016-08-22T11:39:24.625Z,15708
2016-08-22T11:40:24.606Z,13804
2016-08-22T11:41:23.886Z,12580
2016-08-22T11:42:25.250Z,11316
2016-08-22T11:43:24.532Z,10496
2016-08-22T11:44:25.202Z,9516
2016-08-22T11:45:25.183Z,8472
2016-08-22T11:46:25.163Z,7620
2016-08-22T11:47:24.436Z,7192
2016-08-22T11:48:25.123Z,7076
2016-08-22T11:49:25.085Z,7340
2016-08-22T11:50:24.375Z,7144
2016-08-22T11:51:24.348Z,7020
2016-08-22T11:52:24.320Z,7152
2016-08-22T11:53:24.292Z,6820
2016-08-22T11:54:24.270Z,7180
2016-08-22T11:55:24.244Z,7948
2016-08-22T11:56:24.220Z,7588
2016-08-22T11:57:24.887Z,7608
2016-08-22T11:58:24.874Z,7756
2016-08-22T11:59:24.153Z,8080
2016-08-22T12:00:24.817Z,8592
2016-08-22T12:01:24.096Z,8112
2016-08-22T12:02:24.769Z,7592
2016-08-22T12:03:24.770Z,7428
2016-08-22T12:04:23.340Z,7028
2016-08-22T12:05:24.687Z,6672
2016-08-22T12:06:23.973Z,6476
2016-08-22T12:07:23.942Z,6060
2016-08-22T12:08:24.613Z,5676
2016-08-22T12:09:23.904Z,5408
2016-08-22T12:10:23.872Z,5592
2016-08-22T12:11:23.844Z,5444
2016-08-22T12:12:23.818Z,5624
2016-08-22T12:13:24.508Z,6084
2016-08-22T12:14:23.761Z,7000
2016-08-22T12:15:23.744Z,7040
2016-08-22T12:16:23.710Z,6760
2016-08-22T12:17:24.388Z,6564
2016-08-22T12:18:24.358Z,5976
2016-08-22T12:19:23.640Z,5636
2016-08-22T12:20:24.300Z,5736
2016-08-22T12:21:24.273Z,5944
2016-08-22T12:22:23.567Z,6180
2016-08-22T12:23:23.538Z,6428
2016-08-22T12:24:24.197Z,6612
2016-08-22T12:25:24.169Z,6632
2016-08-22T12:26:24.139Z,6464
2016-08-22T12:27:23.421Z,5964
2016-08-22T12:28:24.095Z,5660
2016-08-22T12:29:23.368Z,5728
2016-08-22T12:30:23.341Z,5900
2016-08-22T12:31:24.021Z,6264
2016-08-22T12:32:23.983Z,6388
2016-08-22T12:33:22.562Z,6116
2016-08-22T12:34:23.934Z,5916
2016-08-22T12:35:22.517Z,5624
2016-08-22T12:36:23.878Z,5448
2016-08-22T12:37:23.850Z,5264
2016-08-22T12:38:23.828Z,5084
2016-08-22T12:39:23.792Z,4948
2016-08-22T12:40:23.771Z,4752
2016-08-22T12:41:23.750Z,4688
2016-08-22T12:42:23.710Z,4632
2016-08-22T12:43:23.705Z,4588
2016-08-22T12:44:22.986Z,4524
2016-08-22T12:45:22.937Z,4456
2016-08-22T12:46:23.626Z,4376
2016-08-22T12:47:22.888Z,4332
2016-08-22T12:48:21.471Z,4300
2016-08-22T12:49:22.143Z,4256
2016-08-22T12:50:23.506Z,4268
2016-08-22T12:51:23.479Z,4248
2016-08-22T12:52:22.757Z,4256
2016-08-22T12:53:23.420Z,4260
2016-08-22T12:54:23.395Z,4240
2016-08-22T12:55:22.671Z,4224
2016-08-22T12:56:22.642Z,4196
2016-08-22T12:57:23.306Z,4176
2016-08-22T12:58:23.302Z,4164
2016-08-22T12:59:22.574Z,4144
2016-08-22T13:00:22.556Z,4092
2016-08-22T13:01:23.217Z,4020
2016-08-22T13:02:22.487Z,4044
2016-08-22T13:03:22.452Z,4032
2016-08-22T13:04:22.427Z,4020
2016-08-22T13:05:22.402Z,3992
2016-08-22T13:06:23.077Z,3980
2016-08-22T13:07:23.042Z,3976
2016-08-22T13:08:22.321Z,3964
2016-08-22T13:09:22.292Z,3948
2016-08-22T13:10:22.960Z,3928
2016-08-22T13:11:22.943Z,3908
2016-08-22T13:12:22.213Z,3904
2016-08-22T13:13:22.875Z,3888
2016-08-22T13:14:22.862Z,3876
2016-08-22T13:15:22.825Z,3860
2016-08-22T13:16:22.100Z,3836
2016-08-22T13:17:22.072Z,3832
2016-08-22T13:18:22.049Z,3812
2016-08-22T13:19:22.028Z,3788
2016-08-22T13:20:21.997Z,3772
2016-08-22T13:21:22.665Z,3760
2016-08-22T13:22:22.648Z,3752
2016-08-22T13:23:22.612Z,3748
2016-08-22T13:24:21.893Z,3748
2016-08-22T13:25:21.858Z,3748
2016-08-22T13:26:21.832Z,3736
2016-08-22T13:27:21.799Z,3724
2016-08-22T13:28:21.782Z,3720
2016-08-22T13:29:22.454Z,3720